YPAD

Adelaide International Airport

Airport
ICAO code
YPAD
IATA Code
ADL
Summary
ICAO Region
APAC
ICAO Territory
Location

, South Australia

Serving
Adelaide
Elevation
20 ft
Coordinates
34° 56' 42" S , 138° 31' 50" E
Metar
YPAD 142100Z 00000KT CAVOK 11/08 Q1024

SKYbrary Partners:

Safety knowledge contributed by: